createdAt,value
2022-09-16T00:00:04.122Z,100.00
2022-09-16T00:02:39.870Z,100.00
2022-09-16T00:05:12.168Z,100.00
2022-09-16T00:07:43.647Z,100.00
2022-09-16T00:10:15.738Z,100.00
2022-09-16T00:12:47.223Z,100.00
2022-09-16T00:15:19.129Z,100.00
2022-09-16T00:17:50.632Z,100.00
2022-09-16T00:20:22.462Z,100.00
2022-09-16T00:22:53.973Z,100.00
2022-09-16T00:25:25.838Z,100.00
2022-09-16T00:27:57.322Z,100.00
2022-09-16T00:30:29.277Z,100.00
2022-09-16T00:33:00.766Z,100.00
2022-09-16T00:35:32.597Z,100.00
2022-09-16T00:38:04.089Z,100.00
2022-09-16T00:40:35.946Z,100.00
2022-09-16T00:43:07.751Z,100.00
2022-09-16T00:45:39.275Z,100.00
2022-09-16T00:48:13.050Z,100.00
2022-09-16T00:50:44.593Z,100.00
2022-09-16T00:53:16.133Z,100.00
2022-09-16T00:55:47.631Z,100.00
2022-09-16T00:58:19.450Z,100.00
2022-09-16T01:00:51.052Z,100.00
2022-09-16T01:03:22.961Z,100.00
2022-09-16T01:05:54.450Z,100.00
2022-09-16T01:08:26.040Z,100.00
2022-09-16T01:10:58.008Z,100.00
2022-09-16T01:13:30.043Z,100.00
2022-09-16T01:16:01.589Z,100.00
2022-09-16T01:18:33.523Z,100.00
2022-09-16T01:21:05.074Z,100.00
2022-09-16T01:23:37.274Z,100.00
2022-09-16T01:26:08.769Z,100.00
2022-09-16T01:28:40.662Z,100.00
2022-09-16T01:31:12.186Z,100.00
2022-09-16T01:33:43.979Z,100.00
2022-09-16T01:36:15.455Z,100.00
2022-09-16T01:38:47.380Z,100.00
2022-09-16T01:41:18.890Z,100.00
2022-09-16T01:43:55.037Z,100.00
2022-09-16T01:46:26.559Z,100.00
2022-09-16T01:48:58.604Z,100.00
2022-09-16T01:51:30.101Z,100.00
2022-09-16T01:54:03.568Z,100.00
2022-09-16T01:56:35.112Z,100.00
2022-09-16T01:59:06.953Z,100.00
2022-09-16T02:01:38.515Z,100.00
2022-09-16T02:04:10.434Z,100.00
2022-09-16T02:06:43.976Z,100.00
2022-09-16T02:09:15.894Z,100.00
2022-09-16T02:11:47.416Z,100.00
2022-09-16T02:14:19.461Z,100.00
2022-09-16T02:16:50.942Z,100.00
2022-09-16T02:19:22.839Z,100.00
2022-09-16T02:21:54.338Z,100.00
2022-09-16T02:24:26.169Z,100.00
2022-09-16T02:27:00.657Z,100.00
2022-09-16T02:29:32.472Z,100.00
2022-09-16T02:32:04.023Z,100.00
2022-09-16T02:34:35.897Z,100.00
2022-09-16T02:37:07.413Z,100.00
2022-09-16T02:39:39.287Z,100.00
2022-09-16T02:42:10.781Z,100.00
2022-09-16T02:44:42.628Z,100.00
2022-09-16T02:47:14.145Z,100.00
2022-09-16T02:49:46.124Z,100.00
2022-09-16T02:52:17.622Z,100.00
2022-09-16T02:54:49.630Z,100.00
2022-09-16T02:57:21.112Z,100.00
2022-09-16T02:59:53.238Z,100.00
2022-09-16T03:02:24.750Z,100.00
2022-09-16T03:04:57.496Z,100.00
2022-09-16T03:07:29.000Z,100.00
2022-09-16T03:10:00.831Z,100.00
2022-09-16T03:12:32.313Z,100.00
2022-09-16T03:15:04.134Z,100.00
2022-09-16T03:17:35.702Z,100.00
2022-09-16T03:20:07.496Z,100.00
2022-09-16T03:22:40.223Z,100.00
2022-09-16T03:25:11.736Z,100.00
2022-09-16T03:27:43.383Z,100.00
2022-09-16T03:30:14.880Z,100.00
2022-09-16T03:32:46.696Z,100.00
2022-09-16T03:35:18.262Z,100.00
2022-09-16T03:37:50.297Z,100.00
2022-09-16T03:40:22.015Z,100.00
2022-09-16T03:42:53.984Z,100.00
2022-09-16T03:45:25.465Z,100.00
2022-09-16T03:47:57.271Z,100.00
2022-09-16T03:50:28.776Z,100.00
2022-09-16T03:53:00.657Z,100.00
2022-09-16T03:55:32.156Z,100.00
2022-09-16T03:58:04.207Z,100.00
2022-09-16T04:00:36.049Z,100.00
2022-09-16T04:03:07.931Z,100.00
2022-09-16T04:05:39.485Z,100.00
2022-09-16T04:08:11.332Z,100.00
2022-09-16T04:10:42.820Z,100.00
2022-09-16T04:13:14.662Z,100.00
2022-09-16T04:15:46.204Z,100.00
2022-09-16T04:18:18.134Z,100.00
2022-09-16T04:20:49.634Z,100.00
2022-09-16T04:23:21.471Z,100.00
2022-09-16T04:25:52.993Z,100.00
2022-09-16T04:28:24.866Z,100.00
2022-09-16T04:30:56.582Z,100.00
2022-09-16T04:33:28.498Z,100.00
2022-09-16T04:35:59.996Z,100.00
2022-09-16T04:38:31.816Z,100.00
2022-09-16T04:41:03.299Z,100.00
2022-09-16T04:43:35.223Z,100.00
2022-09-16T04:46:06.943Z,100.00
2022-09-16T04:48:38.883Z,100.00
2022-09-16T04:51:10.397Z,100.00
2022-09-16T04:53:44.063Z,100.00
2022-09-16T04:56:15.980Z,100.00
2022-09-16T04:58:47.861Z,100.00
2022-09-16T05:01:19.391Z,100.00
2022-09-16T05:03:51.306Z,100.00
2022-09-16T05:06:22.893Z,100.00
2022-09-16T05:08:54.902Z,100.00
2022-09-16T05:11:26.435Z,100.00
2022-09-16T05:13:58.915Z,100.00
2022-09-16T05:16:30.639Z,100.00
2022-09-16T05:19:04.933Z,100.00
2022-09-16T05:21:36.642Z,100.00
2022-09-16T05:24:09.017Z,100.00
2022-09-16T05:26:41.910Z,100.00
2022-09-16T05:29:13.430Z,100.00
2022-09-16T05:31:47.191Z,100.00
2022-09-16T05:34:19.111Z,100.00
2022-09-16T05:36:53.859Z,100.00
2022-09-16T05:39:26.592Z,100.00
2022-09-16T05:41:58.370Z,100.00
2022-09-16T05:44:30.338Z,100.00
2022-09-16T05:47:02.326Z,100.00
2022-09-16T05:49:34.951Z,100.00
2022-09-16T05:52:06.456Z,100.00
2022-09-16T05:54:38.431Z,100.00
2022-09-16T05:57:10.260Z,100.00
2022-09-16T05:59:41.758Z,100.00
2022-09-16T06:02:13.650Z,100.00
2022-09-16T06:04:45.498Z,100.00
2022-09-16T06:07:17.755Z,100.00
2022-09-16T06:09:49.400Z,100.00
2022-09-16T06:12:21.431Z,100.00
2022-09-16T06:14:52.947Z,100.00
2022-09-16T06:17:24.943Z,100.00
2022-09-16T06:19:56.522Z,100.00
2022-09-16T06:22:28.193Z,100.00
2022-09-16T06:24:59.672Z,100.00
2022-09-16T06:27:31.496Z,100.00
2022-09-16T06:30:03.016Z,98.45
2022-09-16T06:32:34.799Z,96.51
2022-09-16T06:35:06.286Z,94.51
2022-09-16T06:37:38.166Z,94.73
2022-09-16T06:40:09.997Z,95.50
2022-09-16T06:42:41.775Z,95.17
2022-09-16T06:45:13.290Z,96.43
2022-09-16T06:47:45.231Z,94.05
2022-09-16T06:50:16.736Z,93.92
2022-09-16T06:52:48.743Z,91.95
2022-09-16T06:55:20.277Z,92.12
2022-09-16T06:57:52.170Z,91.19
2022-09-16T07:00:23.709Z,89.39
2022-09-16T07:02:55.582Z,88.32
2022-09-16T07:05:27.075Z,86.81
2022-09-16T07:07:58.922Z,87.97
2022-09-16T07:10:30.790Z,88.68
2022-09-16T07:13:02.823Z,89.35
2022-09-16T07:15:39.298Z,89.33
2022-09-16T07:18:22.580Z,89.58
2022-09-16T07:20:54.096Z,89.40
2022-09-16T07:23:25.581Z,87.50
2022-09-16T07:25:57.396Z,83.87
2022-09-16T07:28:28.887Z,85.54
2022-09-16T07:31:00.792Z,81.65
2022-09-16T07:33:33.318Z,76.75
2022-09-16T07:36:05.348Z,80.27
2022-09-16T07:38:36.899Z,81.07
2022-09-16T07:41:08.531Z,81.03
2022-09-16T07:43:40.342Z,80.24
2022-09-16T07:46:12.275Z,81.09
2022-09-16T07:48:43.863Z,80.51
2022-09-16T07:51:15.415Z,82.21
2022-09-16T07:53:47.008Z,81.27
2022-09-16T07:56:19.050Z,81.21
2022-09-16T07:58:50.555Z,81.82
2022-09-16T08:01:22.140Z,82.09
2022-09-16T08:03:53.664Z,81.75
2022-09-16T08:06:25.157Z,79.83
2022-09-16T08:08:59.779Z,80.29
2022-09-16T08:11:37.348Z,78.11
2022-09-16T08:14:08.843Z,79.09
2022-09-16T08:16:40.401Z,77.31
2022-09-16T08:19:11.924Z,76.34
2022-09-16T08:21:43.436Z,77.93
2022-09-16T08:24:16.359Z,78.31
2022-09-16T08:26:48.232Z,77.90
2022-09-16T08:29:19.841Z,76.25
2022-09-16T08:31:51.841Z,73.86
2022-09-16T08:34:23.374Z,74.11
2022-09-16T08:36:55.338Z,71.42
2022-09-16T08:39:26.872Z,69.93
2022-09-16T08:42:00.454Z,69.40
2022-09-16T08:44:31.946Z,70.02
2022-09-16T08:47:03.831Z,70.89
2022-09-16T08:49:35.369Z,68.84
2022-09-16T08:52:07.296Z,67.40
2022-09-16T08:54:38.800Z,64.37
2022-09-16T08:57:10.597Z,65.48
2022-09-16T08:59:42.647Z,63.59
2022-09-16T09:02:15.097Z,60.62
2022-09-16T09:04:46.915Z,60.98
2022-09-16T09:07:18.922Z,62.32
2022-09-16T09:09:50.424Z,63.48
2022-09-16T09:12:22.502Z,63.95
2022-09-16T09:14:54.475Z,60.79
2022-09-16T09:17:26.432Z,59.83
2022-09-16T09:19:58.143Z,60.18
2022-09-16T09:22:30.018Z,59.64
2022-09-16T09:25:01.511Z,60.02
2022-09-16T09:27:33.347Z,59.01
2022-09-16T09:30:05.124Z,60.06
2022-09-16T09:32:48.419Z,58.65
2022-09-16T09:35:20.324Z,59.20
2022-09-16T09:37:52.183Z,57.69
2022-09-16T09:40:23.860Z,56.03
2022-09-16T09:42:55.748Z,52.59
2022-09-16T09:45:27.303Z,51.53
2022-09-16T09:47:59.167Z,49.27
2022-09-16T09:50:30.765Z,50.17
2022-09-16T09:53:02.704Z,50.36
2022-09-16T09:55:34.233Z,50.84
2022-09-16T09:58:06.126Z,50.59
2022-09-16T10:00:37.644Z,51.33
2022-09-16T10:03:09.984Z,51.55
2022-09-16T10:05:41.486Z,50.77
2022-09-16T10:08:16.435Z,49.77
2022-09-16T10:10:49.109Z,50.86
2022-09-16T10:13:20.632Z,51.66
2022-09-16T10:15:55.623Z,51.68
2022-09-16T10:18:27.545Z,52.80
2022-09-16T10:20:59.354Z,53.28
2022-09-16T10:23:30.945Z,53.52
2022-09-16T10:26:02.830Z,50.58
2022-09-16T10:28:34.318Z,49.27
2022-09-16T10:31:06.227Z,50.21
2022-09-16T10:33:37.761Z,51.78
2022-09-16T10:36:09.577Z,51.13
2022-09-16T10:38:41.146Z,51.85
2022-09-16T10:41:13.048Z,52.53
2022-09-16T10:43:44.538Z,49.71
2022-09-16T10:46:16.419Z,48.82
2022-09-16T10:48:47.942Z,49.99
2022-09-16T10:51:19.857Z,50.69
2022-09-16T10:53:51.683Z,51.90
2022-09-16T10:56:23.715Z,52.67
2022-09-16T10:58:55.239Z,52.74
2022-09-16T11:01:28.023Z,50.03
2022-09-16T11:03:59.885Z,51.93
2022-09-16T11:06:31.500Z,53.02
2022-09-16T11:09:03.010Z,53.23
2022-09-16T11:11:34.920Z,53.58
2022-09-16T11:14:06.435Z,53.62
2022-09-16T11:16:38.381Z,51.37
2022-09-16T11:19:10.130Z,48.68
2022-09-16T11:21:41.626Z,51.10
2022-09-16T11:24:13.133Z,48.42
2022-09-16T11:26:44.933Z,48.24
2022-09-16T11:29:16.437Z,46.96
2022-09-16T11:31:48.523Z,45.67
2022-09-16T11:34:20.651Z,45.57
2022-09-16T11:36:52.511Z,47.49
2022-09-16T11:39:24.029Z,48.71
2022-09-16T11:41:55.925Z,48.31
2022-09-16T11:44:27.705Z,49.38
2022-09-16T11:46:59.619Z,48.21
2022-09-16T11:49:31.150Z,46.97
2022-09-16T11:52:05.156Z,44.66
2022-09-16T11:54:36.848Z,43.66
2022-09-16T11:57:10.830Z,42.59
2022-09-16T11:59:44.701Z,43.08
2022-09-16T12:02:16.597Z,43.31
2022-09-16T12:04:48.221Z,45.53
2022-09-16T12:07:20.206Z,46.75
2022-09-16T12:09:51.685Z,45.80
2022-09-16T12:12:23.662Z,46.51
2022-09-16T12:14:55.734Z,47.56
2022-09-16T12:17:28.153Z,46.88
2022-09-16T12:19:59.635Z,46.33
2022-09-16T12:22:31.533Z,44.41
2022-09-16T12:25:03.018Z,42.91
2022-09-16T12:27:35.187Z,41.89
2022-09-16T12:30:06.775Z,42.84
2022-09-16T12:32:38.638Z,43.20
2022-09-16T12:35:10.126Z,44.02
2022-09-16T12:37:41.949Z,42.82
2022-09-16T12:40:13.531Z,42.27
2022-09-16T12:42:46.724Z,43.00
2022-09-16T12:45:18.330Z,45.23
2022-09-16T12:47:50.176Z,44.73
2022-09-16T12:50:21.654Z,46.14
2022-09-16T12:52:55.006Z,46.26
2022-09-16T12:55:26.832Z,47.48
2022-09-16T12:57:58.697Z,53.95
2022-09-16T13:00:30.175Z,52.37
2022-09-16T13:03:02.055Z,51.24
2022-09-16T13:05:33.807Z,51.80
2022-09-16T13:08:05.729Z,48.25
2022-09-16T13:13:29.081Z,47.84
2022-09-16T13:16:00.638Z,45.90
2022-09-16T13:18:33.449Z,44.62
2022-09-16T13:21:05.315Z,44.05
2022-09-16T13:23:36.817Z,41.65
2022-09-16T13:26:08.735Z,41.92
2022-09-16T13:28:40.657Z,40.22
2022-09-16T13:31:13.018Z,38.58
2022-09-16T13:33:44.637Z,39.28
2022-09-16T13:36:16.963Z,38.32
2022-09-16T13:38:49.791Z,38.32
2022-09-16T13:41:21.608Z,38.30
2022-09-16T13:43:53.387Z,38.26
2022-09-16T13:46:25.269Z,39.82
2022-09-16T13:48:56.781Z,39.26
2022-09-16T13:51:30.836Z,40.57
2022-09-16T13:54:05.965Z,42.35
2022-09-16T13:56:37.846Z,43.26
2022-09-16T13:59:09.389Z,44.15
2022-09-16T14:01:58.778Z,43.77
2022-09-16T14:04:31.257Z,42.23
2022-09-16T14:07:03.219Z,40.06
2022-09-16T14:09:34.729Z,38.74
2022-09-16T14:12:06.544Z,38.94
2022-09-16T14:14:53.396Z,39.66
2022-09-16T14:17:25.277Z,37.33
2022-09-16T14:19:56.808Z,36.40
2022-09-16T14:22:29.231Z,36.96
2022-09-16T14:25:06.508Z,36.30
2022-09-16T14:27:44.968Z,36.65
2022-09-16T14:30:17.254Z,37.84
2022-09-16T14:32:49.322Z,38.76
2022-09-16T14:35:21.017Z,38.12
2022-09-16T14:37:52.510Z,37.45
2022-09-16T14:40:24.049Z,37.55
2022-09-16T14:42:55.545Z,38.20
2022-09-16T14:45:27.046Z,38.33
2022-09-16T14:47:58.719Z,37.93
2022-09-16T14:50:30.329Z,37.11
2022-09-16T14:53:01.850Z,37.54
2022-09-16T14:55:36.467Z,39.54
2022-09-16T14:58:07.951Z,38.85
2022-09-16T15:00:39.761Z,38.47
2022-09-16T15:03:11.239Z,37.50
2022-09-16T15:05:43.108Z,36.47
2022-09-16T15:08:14.975Z,36.87
2022-09-16T15:10:54.181Z,36.32
2022-09-16T15:13:25.762Z,37.30
2022-09-16T15:15:57.797Z,37.88
2022-09-16T15:18:29.314Z,38.89
2022-09-16T15:21:01.288Z,39.73
2022-09-16T15:23:32.827Z,40.73
2022-09-16T15:26:04.675Z,41.54
2022-09-16T15:28:36.478Z,42.51
2022-09-16T15:31:10.291Z,43.37
2022-09-16T15:33:41.931Z,42.31
2022-09-16T15:36:14.228Z,41.76
2022-09-16T15:38:45.722Z,42.40
2022-09-16T15:41:17.717Z,42.38
2022-09-16T15:43:49.537Z,42.67
2022-09-16T15:46:21.962Z,42.33
2022-09-16T15:48:55.851Z,42.65
2022-09-16T15:51:29.356Z,43.21
2022-09-16T15:54:01.541Z,43.30
2022-09-16T15:56:33.307Z,43.48
2022-09-16T15:59:05.334Z,43.13
2022-09-16T16:01:37.449Z,43.32
2022-09-16T16:04:09.478Z,43.60
2022-09-16T16:06:41.062Z,44.55
2022-09-16T16:09:12.881Z,45.08
2022-09-16T16:11:44.381Z,44.98
2022-09-16T16:14:16.327Z,45.73
2022-09-16T16:17:11.130Z,45.56
2022-09-16T16:19:41.700Z,45.50
2022-09-16T16:22:13.996Z,45.03
2022-09-16T16:24:46.340Z,45.18
2022-09-16T16:27:17.844Z,45.82
2022-09-16T16:29:49.852Z,46.16
2022-09-16T16:32:21.439Z,46.26
2022-09-16T16:34:54.958Z,46.50
2022-09-16T16:37:46.521Z,46.41
2022-09-16T16:40:18.277Z,46.66
2022-09-16T16:42:49.849Z,46.92
2022-09-16T16:45:21.708Z,47.28
2022-09-16T16:47:53.231Z,47.80
2022-09-16T16:50:25.107Z,48.57
2022-09-16T16:52:56.672Z,48.34
2022-09-16T16:55:28.484Z,48.46
2022-09-16T16:58:00.272Z,48.56
2022-09-16T17:00:31.834Z,48.76
2022-09-16T17:03:03.779Z,48.73
2022-09-16T17:05:35.325Z,48.90
2022-09-16T17:08:07.212Z,49.85
2022-09-16T17:10:38.783Z,50.24
2022-09-16T17:13:10.609Z,50.81
2022-09-16T17:15:42.151Z,51.29
2022-09-16T17:18:14.013Z,51.55
2022-09-16T17:20:45.494Z,52.53
2022-09-16T17:23:17.310Z,53.18
2022-09-16T17:25:48.823Z,54.07
2022-09-16T17:28:20.657Z,54.50
2022-09-16T17:30:52.207Z,55.14
2022-09-16T17:33:24.044Z,55.00
2022-09-16T17:35:55.556Z,55.45
2022-09-16T17:38:27.354Z,55.93
2022-09-16T17:40:58.880Z,56.17
2022-09-16T17:43:32.644Z,55.87
2022-09-16T17:46:04.414Z,56.02
2022-09-16T17:48:37.790Z,56.58
2022-09-16T17:51:09.293Z,57.43
2022-09-16T17:53:41.298Z,57.15
2022-09-16T17:56:12.851Z,58.11
2022-09-16T17:58:44.718Z,58.83
2022-09-16T18:01:16.268Z,58.64
2022-09-16T18:03:48.206Z,58.97
2022-09-16T18:06:19.856Z,59.79
2022-09-16T18:08:52.173Z,59.54
2022-09-16T18:11:24.265Z,59.64
2022-09-16T18:13:56.166Z,59.70
2022-09-16T18:16:27.717Z,60.35
2022-09-16T18:18:59.685Z,59.88
2022-09-16T18:21:31.301Z,60.53
2022-09-16T18:24:03.228Z,61.29
2022-09-16T18:26:34.747Z,60.80
2022-09-16T18:29:09.923Z,61.55
2022-09-16T18:31:41.846Z,61.63
2022-09-16T18:34:13.733Z,61.78
2022-09-16T18:36:45.248Z,61.65
2022-09-16T18:39:17.053Z,62.37
2022-09-16T18:41:48.627Z,62.35
2022-09-16T18:44:20.195Z,62.35
2022-09-16T18:46:51.779Z,62.41
2022-09-16T18:49:26.416Z,62.77
2022-09-16T18:51:57.919Z,62.55
2022-09-16T18:54:29.905Z,62.86
2022-09-16T18:57:01.934Z,62.44
2022-09-16T18:59:34.524Z,62.77
2022-09-16T19:02:08.542Z,62.79
2022-09-16T19:04:40.558Z,62.56
2022-09-16T19:07:12.057Z,62.43
2022-09-16T19:09:45.836Z,61.93
2022-09-16T19:12:17.337Z,62.00
2022-09-16T19:14:49.269Z,62.27
2022-09-16T19:17:20.861Z,62.71
2022-09-16T19:19:52.714Z,63.09
2022-09-16T19:22:24.234Z,63.77
2022-09-16T19:24:55.788Z,64.20
2022-09-16T19:27:27.268Z,64.74
2022-09-16T19:29:59.124Z,65.26
2022-09-16T19:32:30.657Z,67.97
2022-09-16T19:35:03.238Z,68.67
2022-09-16T19:37:34.741Z,70.24
2022-09-16T19:40:06.729Z,70.82
2022-09-16T19:42:38.395Z,71.86
2022-09-16T19:45:10.567Z,72.67
2022-09-16T19:47:42.058Z,73.94
2022-09-16T19:50:14.099Z,76.28
2022-09-16T19:52:45.586Z,81.62
2022-09-16T19:55:17.378Z,87.32
2022-09-16T19:57:48.867Z,89.52
2022-09-16T20:00:20.391Z,96.16
2022-09-16T20:02:51.915Z,98.78
2022-09-16T20:05:24.220Z,100.00
2022-09-16T20:07:56.230Z,100.00
2022-09-16T20:10:28.224Z,100.00
2022-09-16T20:13:00.033Z,100.00
2022-09-16T20:15:31.553Z,100.00
2022-09-16T20:18:03.406Z,100.00
2022-09-16T20:20:34.919Z,100.00
2022-09-16T20:23:06.985Z,100.00
2022-09-16T20:25:38.570Z,100.00
2022-09-16T20:28:10.395Z,100.00
2022-09-16T20:30:41.871Z,100.00
2022-09-16T20:33:13.662Z,100.00
2022-09-16T20:35:45.264Z,100.00
2022-09-16T20:38:17.144Z,100.00
2022-09-16T20:40:48.702Z,100.00
2022-09-16T20:43:20.505Z,100.00
2022-09-16T20:45:52.027Z,100.00
2022-09-16T20:48:23.725Z,100.00
2022-09-16T20:50:55.236Z,100.00
2022-09-16T20:53:27.075Z,100.00
2022-09-16T20:55:58.555Z,100.00
2022-09-16T20:58:30.379Z,100.00
2022-09-16T21:01:01.997Z,100.00
2022-09-16T21:03:33.937Z,100.00
2022-09-16T21:06:05.420Z,100.00
2022-09-16T21:08:37.335Z,100.00
2022-09-16T21:11:11.371Z,100.00
2022-09-16T21:13:43.251Z,100.00
2022-09-16T21:16:15.445Z,100.00
2022-09-16T21:18:47.125Z,100.00
2022-09-16T21:21:19.534Z,100.00
2022-09-16T21:23:51.363Z,100.00
2022-09-16T21:26:22.853Z,100.00
2022-09-16T21:28:54.713Z,100.00
2022-09-16T21:31:26.389Z,100.00
2022-09-16T21:33:58.348Z,100.00
2022-09-16T21:36:29.959Z,100.00
2022-09-16T21:39:02.060Z,100.00
2022-09-16T21:41:33.726Z,100.00
2022-09-16T21:44:05.598Z,100.00
2022-09-16T21:46:41.603Z,100.00
2022-09-16T21:49:18.466Z,100.00
2022-09-16T21:51:50.012Z,100.00
2022-09-16T21:54:21.905Z,100.00
2022-09-16T21:56:53.449Z,100.00
2022-09-16T21:59:25.349Z,100.00
2022-09-16T22:02:01.482Z,100.00
2022-09-16T22:04:35.159Z,100.00
2022-09-16T22:07:10.707Z,100.00
2022-09-16T22:09:42.592Z,100.00
2022-09-16T22:12:14.093Z,100.00
2022-09-16T22:14:46.175Z,100.00
2022-09-16T22:17:18.487Z,100.00
2022-09-16T22:19:50.300Z,100.00
2022-09-16T22:22:21.827Z,100.00
2022-09-16T22:24:53.731Z,100.00
2022-09-16T22:27:25.271Z,100.00
2022-09-16T22:29:57.258Z,100.00
2022-09-16T22:32:28.786Z,100.00
2022-09-16T22:35:00.613Z,100.00
2022-09-16T22:37:32.115Z,100.00
2022-09-16T22:40:04.169Z,100.00
2022-09-16T22:42:35.785Z,100.00
2022-09-16T22:45:07.635Z,100.00
2022-09-16T22:47:39.132Z,100.00
2022-09-16T22:50:11.016Z,100.00
2022-09-16T22:52:42.515Z,100.00
2022-09-16T22:55:14.328Z,100.00
2022-09-16T22:57:45.848Z,100.00
2022-09-16T23:00:17.348Z,100.00
2022-09-16T23:02:48.851Z,100.00
2022-09-16T23:05:20.663Z,100.00
2022-09-16T23:07:52.164Z,100.00
2022-09-16T23:10:23.985Z,100.00
2022-09-16T23:12:55.538Z,100.00
2022-09-16T23:15:28.361Z,100.00
2022-09-16T23:18:00.250Z,100.00
2022-09-16T23:20:31.931Z,100.00
2022-09-16T23:23:03.799Z,100.00
2022-09-16T23:25:35.602Z,100.00
2022-09-16T23:28:07.106Z,100.00
2022-09-16T23:30:38.628Z,100.00
2022-09-16T23:33:10.137Z,100.00
2022-09-16T23:35:42.069Z,100.00
2022-09-16T23:38:13.592Z,100.00
2022-09-16T23:40:45.437Z,100.00
2022-09-16T23:43:16.896Z,100.00
2022-09-16T23:45:48.796Z,100.00
2022-09-16T23:48:20.284Z,100.00
2022-09-16T23:50:51.752Z,100.00
2022-09-16T23:53:23.520Z,100.00
2022-09-16T23:55:54.988Z,100.00
2022-09-16T23:58:26.746Z,100.00
